This is the latest recevied weather packets stored in our database for station/object K7VLL. If no packets are shown the sender has not sent any weather packets the latest 10 day(s).
| Time | Temp. | Humidity | Pressure | Rain* | Wind** | Luminosity | Snow |
|---|---|---|---|---|---|---|---|
| 1778187312 | 32.22° C | 10% | 1088.1 hPa | 0 mm | - | 654 W/m² | - |
| 1778185509 | 32.22° C | 10% | 1088.2 hPa | 0 mm | - | 688 W/m² | - |
| 1778183705 | 31.67° C | 10% | 1088.5 hPa | 0 mm | - | 709 W/m² | - |
| 1778181902 | 31.67° C | 11% | 1089.1 hPa | 0 mm | - | 716 W/m² | - |
| 1778180102 | 30° C | 13% | 1089.5 hPa | 0 mm | - | 708 W/m² | - |
| 1778178301 | 30° C | 12% | 1089.9 hPa | 0 mm | - | 689 W/m² | - |
| 1778176497 | 27.78° C | 14% | 1090.4 hPa | 0 mm | - | 655 W/m² | - |
| 1778174697 | 27.78° C | 16% | 1090.8 hPa | 0 mm | - | 604 W/m² | - |
| 1778172894 | 26.11° C | 18% | 1090.7 hPa | 0 mm | - | 549 W/m² | - |
| 1778171091 | 23.89° C | 20% | 1090.9 hPa | 0 mm | - | 282 W/m² | - |
| 1778169287 | 22.22° C | 23% | 1091.4 hPa | 0 mm | - | 120 W/m² | - |
| 1778167485 | 20.56° C | 27% | 1091.5 hPa | 0 mm | - | 37 W/m² | - |
| 1778165681 | 18.89° C | 30% | 1091.5 hPa | 0 mm | - | 41 W/m² | - |
| 1778163879 | 16.67° C | 35% | 1091.8 hPa | 0 mm | - | 34 W/m² | - |
| 1778162078 | 15.56° C | 39% | 1091.7 hPa | 0 mm | - | 97 W/m² | - |
| 1778160276 | 16.11° C | 41% | 1091.4 hPa | 0 mm | - | 27 W/m² | - |
| 1778158473 | 11.67° C | 50% | 1091.2 hPa | 0 mm | - | 13 W/m² | - |
| 1778156670 | 11.67° C | 50% | 1091.1 hPa | 0 mm | - | 1 W/m² | - |
| 1778154870 | 11.67° C | 51% | 1091.2 hPa | 0 mm | - | 0 W/m² | - |
| 1778153069 | 11.67° C | 50% | 1090.9 hPa | 0 mm | - | 0 W/m² | - |
| 1778151267 | 11.67° C | 52% | 1091 hPa | 0 mm | - | 0 W/m² | - |
| 1778149463 | 12.22° C | 50% | 1091.3 hPa | 0 mm | - | 0 W/m² | - |
| 1778147661 | 12.78° C | 55% | 1091.3 hPa | 0 mm | - | 0 W/m² | - |
| 1778145861 | 13.33° C | 47% | 1091.5 hPa | 0 mm | - | 0 W/m² | - |
| 1778144058 | 13.33° C | 46% | 1091.3 hPa | 0 mm | - | 0 W/m² | - |
* Rain latest hour (hover to see other rain measurements)
** Current wind speed in m/s (hover to see current wind gust speed)